createdAt,value
2023-02-14T00:01:58.477Z,30.70
2023-02-14T00:04:25.257Z,30.30
2023-02-14T00:06:51.867Z,29.77
2023-02-14T00:09:19.768Z,31.30
2023-02-14T00:11:46.303Z,29.27
2023-02-14T00:14:31.642Z,30.55
2023-02-14T00:16:58.372Z,31.48
2023-02-14T00:19:24.963Z,29.80
2023-02-14T00:21:51.755Z,30.35
2023-02-14T00:24:23.914Z,30.83
2023-02-14T00:26:51.302Z,31.98
2023-02-14T00:29:20.905Z,30.50
2023-02-14T00:31:47.449Z,32.47
2023-02-14T00:34:16.375Z,32.38
2023-02-14T00:36:43.493Z,30.65
2023-02-14T00:39:13.427Z,30.25
2023-02-14T00:41:40.975Z,31.33
2023-02-14T00:44:10.144Z,32.47
2023-02-14T00:46:37.001Z,31.52
2023-02-14T00:49:04.277Z,32.53
2023-02-14T00:51:31.219Z,30.83
2023-02-14T00:53:57.906Z,31.80
2023-02-14T00:56:24.463Z,30.98
2023-02-14T00:58:51.013Z,30.10
2023-02-14T01:01:18.670Z,30.95
2023-02-14T01:03:45.222Z,30.92
2023-02-14T01:06:11.746Z,30.38
2023-02-14T01:08:38.412Z,32.70
2023-02-14T01:11:17.017Z,32.15
2023-02-14T01:13:44.239Z,30.42
2023-02-14T01:16:15.569Z,31.10
2023-02-14T01:18:43.272Z,30.23
2023-02-14T01:21:11.891Z,32.30
2023-02-14T01:23:38.417Z,31.52
2023-02-14T01:26:06.824Z,31.00
2023-02-14T01:28:33.880Z,31.83
2023-02-14T01:31:09.306Z,30.70
2023-02-14T01:33:36.279Z,30.92
2023-02-14T01:36:03.059Z,33.03
2023-02-14T01:38:29.810Z,31.35
2023-02-14T01:40:57.064Z,31.83
2023-02-14T01:43:23.744Z,31.73
2023-02-14T01:45:50.316Z,31.75
2023-02-14T01:48:21.036Z,30.33
2023-02-14T01:50:49.577Z,30.85
2023-02-14T01:53:23.754Z,32.88
2023-02-14T01:55:59.233Z,30.35
2023-02-14T01:58:31.971Z,29.15
2023-02-14T02:00:59.174Z,30.88
2023-02-14T02:03:39.936Z,31.08
2023-02-14T02:06:26.356Z,29.17
2023-02-14T02:09:04.949Z,31.10
2023-02-14T02:11:31.603Z,29.83
2023-02-14T02:13:58.105Z,30.45
2023-02-14T02:16:33.528Z,29.92
2023-02-14T02:19:27.191Z,29.77
2023-02-14T02:22:30.312Z,29.77
2023-02-14T02:25:19.290Z,28.67
2023-02-14T02:28:03.889Z,28.33
2023-02-14T02:31:01.921Z,29.58
2023-02-14T02:33:52.867Z,28.13
2023-02-14T02:36:34.407Z,29.23
2023-02-14T02:39:16.099Z,28.13
2023-02-14T02:42:04.189Z,30.05
2023-02-14T02:44:51.868Z,30.80
2023-02-14T02:47:33.541Z,29.60
2023-02-14T02:50:47.107Z,28.40
2023-02-14T02:53:43.986Z,30.45
2023-02-14T02:56:35.031Z,28.60
2023-02-14T02:59:18.252Z,28.02
2023-02-14T03:02:05.117Z,29.80
2023-02-14T03:04:53.344Z,28.88
2023-02-14T03:07:34.873Z,28.73
2023-02-14T03:10:07.949Z,30.88
2023-02-14T03:12:34.335Z,29.48
2023-02-14T03:15:06.873Z,31.45
2023-02-14T03:17:39.813Z,29.13
2023-02-14T03:20:16.814Z,29.95
2023-02-14T03:23:14.808Z,30.15
2023-02-14T03:26:00.240Z,29.17
2023-02-14T03:28:43.821Z,27.95
2023-02-14T03:31:23.934Z,28.70
2023-02-14T03:34:01.591Z,29.67
2023-02-14T03:36:35.278Z,29.75
2023-02-14T03:39:21.840Z,28.83
2023-02-14T03:41:53.336Z,31.63
2023-02-14T03:44:25.862Z,29.92
2023-02-14T03:47:00.599Z,31.48
2023-02-14T03:49:31.194Z,29.77
2023-02-14T03:52:01.015Z,29.13
2023-02-14T03:54:30.297Z,27.60
2023-02-14T03:57:08.012Z,28.63
2023-02-14T03:59:35.604Z,28.98
2023-02-14T04:02:34.400Z,28.42
2023-02-14T04:05:03.959Z,28.48
2023-02-14T04:07:30.460Z,27.92
2023-02-14T04:09:57.192Z,29.10
2023-02-14T04:12:36.875Z,27.42
2023-02-14T04:15:05.101Z,29.50
2023-02-14T04:17:50.224Z,28.73
2023-02-14T04:20:16.802Z,27.05
2023-02-14T04:22:43.265Z,28.92
2023-02-14T04:25:09.737Z,30.63
2023-02-14T04:27:36.201Z,29.58
2023-02-14T04:30:03.770Z,27.83
2023-02-14T04:32:30.321Z,29.13
2023-02-14T04:34:56.880Z,30.13
2023-02-14T04:37:23.434Z,29.33
2023-02-14T04:39:49.955Z,30.58
2023-02-14T04:42:16.503Z,29.60
2023-02-14T04:44:43.085Z,28.20
2023-02-14T04:47:09.711Z,28.77
2023-02-14T04:49:36.781Z,28.90
2023-02-14T04:52:03.973Z,28.88
2023-02-14T04:54:30.577Z,26.88
2023-02-14T04:56:57.078Z,27.23
2023-02-14T04:59:25.080Z,29.40
2023-02-14T05:01:52.320Z,28.13
2023-02-14T05:04:19.165Z,27.33
2023-02-14T05:06:45.719Z,27.85
2023-02-14T05:09:12.209Z,27.75
2023-02-14T05:11:38.744Z,27.65
2023-02-14T05:14:05.280Z,25.85
2023-02-14T05:16:31.828Z,27.15
2023-02-14T05:18:58.405Z,25.42
2023-02-14T05:21:24.977Z,26.45
2023-02-14T05:23:51.488Z,30.27
2023-02-14T05:26:18.040Z,25.90
2023-02-14T05:28:44.529Z,26.77
2023-02-14T05:31:11.099Z,27.10
2023-02-14T05:33:37.798Z,27.15
2023-02-14T05:36:04.683Z,25.60
2023-02-14T05:38:31.508Z,26.60
2023-02-14T05:40:58.316Z,27.17
2023-02-14T05:43:26.240Z,26.27
2023-02-14T05:45:54.270Z,26.52
2023-02-14T05:48:20.928Z,26.58
2023-02-14T05:50:47.435Z,27.58
2023-02-14T05:53:14.452Z,26.58
2023-02-14T05:55:41.181Z,25.00
2023-02-14T05:58:07.860Z,28.30
2023-02-14T06:00:34.943Z,25.40
2023-02-14T06:03:01.488Z,26.73
2023-02-14T06:05:28.057Z,27.73
2023-02-14T06:07:54.618Z,27.60
2023-02-14T06:10:24.549Z,26.17
2023-02-14T06:12:52.973Z,25.88
2023-02-14T06:15:20.255Z,26.73
2023-02-14T06:17:59.733Z,25.42
2023-02-14T06:20:26.252Z,26.35
2023-02-14T06:22:53.151Z,25.75
2023-02-14T06:25:20.317Z,27.55
2023-02-14T06:27:49.282Z,26.13
2023-02-14T06:30:17.914Z,27.13
2023-02-14T06:32:44.636Z,26.13
2023-02-14T06:35:11.590Z,28.27
2023-02-14T06:37:38.868Z,26.58
2023-02-14T06:40:06.208Z,26.75
2023-02-14T06:42:32.740Z,27.20
2023-02-14T06:44:59.311Z,26.73
2023-02-14T06:47:25.892Z,26.35
2023-02-14T06:49:52.459Z,25.83
2023-02-14T06:52:19.012Z,25.23
2023-02-14T06:54:45.532Z,26.55
2023-02-14T06:57:12.063Z,23.80
2023-02-14T06:59:38.669Z,24.95
2023-02-14T07:02:05.271Z,25.50
2023-02-14T07:04:31.897Z,24.70
2023-02-14T07:06:58.354Z,26.50
2023-02-14T07:09:24.868Z,24.33
2023-02-14T07:11:51.463Z,26.10
2023-02-14T07:14:17.979Z,24.35
2023-02-14T07:16:44.440Z,25.75
2023-02-14T07:19:10.985Z,23.42
2023-02-14T07:21:37.553Z,23.85
2023-02-14T07:24:04.039Z,24.00
2023-02-14T07:26:30.476Z,24.90
2023-02-14T07:28:56.966Z,22.55
2023-02-14T07:31:23.835Z,23.42
2023-02-14T07:33:51.676Z,23.92
2023-02-14T07:36:19.234Z,23.23
2023-02-14T07:38:45.766Z,23.63
2023-02-14T07:41:12.334Z,23.45
2023-02-14T07:43:39.711Z,21.75
2023-02-14T07:46:06.646Z,22.20
2023-02-14T07:48:34.292Z,22.50
2023-02-14T07:51:01.816Z,22.88
2023-02-14T07:53:28.541Z,21.73
2023-02-14T07:55:55.059Z,21.80
2023-02-14T07:58:21.817Z,22.58
2023-02-14T08:00:48.612Z,20.75
2023-02-14T08:03:15.699Z,22.45
2023-02-14T08:05:42.248Z,21.10
2023-02-14T08:08:08.933Z,21.40
2023-02-14T08:10:35.411Z,19.60
2023-02-14T08:13:02.253Z,21.38
2023-02-14T08:15:50.022Z,20.05
2023-02-14T08:18:18.380Z,20.58
2023-02-14T08:20:46.650Z,20.35
2023-02-14T08:23:13.192Z,19.55
2023-02-14T08:25:40.604Z,21.13
2023-02-14T08:28:07.173Z,20.55
2023-02-14T08:30:36.763Z,20.02
2023-02-14T08:33:03.909Z,18.73
2023-02-14T08:35:30.488Z,19.00
2023-02-14T08:37:57.317Z,19.88
2023-02-14T08:40:24.391Z,18.20
2023-02-14T08:42:50.988Z,19.50
2023-02-14T08:45:17.568Z,18.55
2023-02-14T08:47:44.220Z,20.17
2023-02-14T08:50:13.773Z,18.88
2023-02-14T08:52:41.365Z,19.02
2023-02-14T08:55:08.010Z,19.83
2023-02-14T08:57:34.498Z,19.63
2023-02-14T09:00:01.116Z,18.92
2023-02-14T09:02:27.696Z,19.95
2023-02-14T09:04:54.147Z,18.63
2023-02-14T09:07:20.839Z,18.52
2023-02-14T09:09:47.468Z,19.02
2023-02-14T09:12:14.040Z,18.00
2023-02-14T09:14:46.185Z,16.80
2023-02-14T09:17:13.892Z,19.05
2023-02-14T09:19:40.473Z,20.27
2023-02-14T09:22:09.032Z,18.30
2023-02-14T09:24:37.622Z,20.20
2023-02-14T09:27:04.671Z,18.70
2023-02-14T09:29:32.151Z,18.30
2023-02-14T09:32:01.230Z,18.35
2023-02-14T09:34:47.183Z,18.00
2023-02-14T09:37:33.183Z,19.42
2023-02-14T09:39:59.708Z,19.15
2023-02-14T09:42:35.259Z,19.50
2023-02-14T09:45:07.041Z,19.83
2023-02-14T09:47:39.977Z,18.75
2023-02-14T09:50:27.987Z,17.40
2023-02-14T09:53:01.375Z,19.35
2023-02-14T09:58:06.089Z,18.70
2023-02-14T10:00:38.080Z,19.52
2023-02-14T10:03:28.791Z,19.73
2023-02-14T10:06:10.294Z,17.05
2023-02-14T10:09:02.611Z,17.40
2023-02-14T10:11:29.435Z,18.00
2023-02-14T10:14:08.709Z,18.10
2023-02-14T10:16:45.758Z,16.83
2023-02-14T10:19:40.065Z,18.75
2023-02-14T10:22:14.209Z,17.20
2023-02-14T10:24:47.791Z,17.20
2023-02-14T10:27:17.011Z,19.52
2023-02-14T10:29:43.634Z,17.77
2023-02-14T10:32:15.242Z,17.15
2023-02-14T10:34:51.780Z,19.35
2023-02-14T10:37:23.380Z,18.08
2023-02-14T10:39:58.585Z,18.52
2023-02-14T10:42:52.780Z,17.63
2023-02-14T10:45:28.852Z,17.38
2023-02-14T10:48:08.327Z,18.60
2023-02-14T10:50:56.396Z,18.48
2023-02-14T10:53:27.546Z,17.83
2023-02-14T10:56:03.703Z,17.10
2023-02-14T10:58:36.082Z,17.40
2023-02-14T11:01:10.846Z,17.08
2023-02-14T11:03:39.742Z,18.10
2023-02-14T11:06:08.751Z,17.10
2023-02-14T11:08:38.198Z,17.55
2023-02-14T11:11:07.490Z,17.73
2023-02-14T11:13:37.183Z,18.52
2023-02-14T11:16:10.212Z,17.50
2023-02-14T11:18:39.583Z,17.13
2023-02-14T11:21:17.877Z,18.63
2023-02-14T11:23:49.659Z,17.83
2023-02-14T11:26:46.785Z,18.83
2023-02-14T11:29:17.348Z,19.70
2023-02-14T11:31:44.092Z,19.77
2023-02-14T11:34:37.129Z,17.90
2023-02-14T11:37:16.370Z,18.03
2023-02-14T11:39:42.994Z,17.67
2023-02-14T11:42:12.161Z,19.15
2023-02-14T11:44:55.063Z,18.67
2023-02-14T11:47:29.163Z,18.40
2023-02-14T11:50:06.113Z,19.42
2023-02-14T11:52:34.353Z,18.75
2023-02-14T11:55:01.500Z,18.95
2023-02-14T11:57:34.524Z,18.58
2023-02-14T12:00:11.632Z,19.55
2023-02-14T12:02:40.923Z,18.98
2023-02-14T12:05:20.655Z,17.27
2023-02-14T12:07:59.693Z,22.52
2023-02-14T12:10:38.135Z,25.38
2023-02-14T12:13:24.640Z,27.67
2023-02-14T12:15:56.728Z,18.80
2023-02-14T12:18:38.260Z,18.88
2023-02-14T12:21:23.488Z,20.52
2023-02-14T12:24:08.121Z,19.90
2023-02-14T12:26:59.067Z,19.25
2023-02-14T12:29:30.439Z,19.58
2023-02-14T12:32:02.277Z,20.00
2023-02-14T12:34:28.935Z,20.15
2023-02-14T12:37:19.582Z,20.65
2023-02-14T12:40:01.355Z,19.77
2023-02-14T12:43:19.085Z,20.15
2023-02-14T12:45:59.835Z,18.85
2023-02-14T12:48:35.288Z,20.50
2023-02-14T12:51:15.474Z,20.80
2023-02-14T12:54:14.182Z,19.98
2023-02-14T12:56:40.583Z,20.85
2023-02-14T12:59:31.941Z,20.33
2023-02-14T13:02:36.001Z,22.52
2023-02-14T13:08:22.645Z,23.83
2023-02-14T13:10:55.684Z,22.25
2023-02-14T13:13:46.532Z,21.52
2023-02-14T13:16:16.106Z,20.77
2023-02-14T13:19:03.611Z,21.17
2023-02-14T13:21:35.477Z,20.83
2023-02-14T13:24:19.775Z,21.33
2023-02-14T13:26:50.293Z,20.83
2023-02-14T13:29:20.579Z,21.27
2023-02-14T13:31:48.472Z,20.10
2023-02-14T13:34:33.286Z,22.10
2023-02-14T13:37:02.590Z,21.67
2023-02-14T13:39:38.688Z,22.13
2023-02-14T13:42:06.650Z,22.27
2023-02-14T13:44:38.922Z,20.95
2023-02-14T13:47:15.161Z,21.42
2023-02-14T13:49:48.782Z,23.15
2023-02-14T13:52:48.724Z,21.98
2023-02-14T13:55:23.492Z,21.40
2023-02-14T13:58:05.585Z,23.67
2023-02-14T14:00:43.754Z,21.70
2023-02-14T14:03:15.112Z,22.35
2023-02-14T14:05:56.864Z,22.02
2023-02-14T14:08:23.484Z,21.05
2023-02-14T14:10:55.539Z,21.73
2023-02-14T14:13:40.469Z,21.83
2023-02-14T14:16:19.372Z,21.73
2023-02-14T14:18:45.922Z,22.92
2023-02-14T14:21:26.330Z,22.30
2023-02-14T14:24:14.370Z,22.77
2023-02-14T14:26:47.514Z,23.38
2023-02-14T14:29:30.335Z,23.35
2023-02-14T14:31:57.172Z,19.30
2023-02-14T14:34:26.541Z,22.67
2023-02-14T14:37:04.348Z,23.35
2023-02-14T14:39:33.444Z,24.33
2023-02-14T14:42:14.836Z,23.60
2023-02-14T14:44:54.688Z,22.13
2023-02-14T14:47:41.783Z,23.50
2023-02-14T14:50:19.664Z,25.60
2023-02-14T14:52:49.506Z,24.88
2023-02-14T14:55:21.238Z,24.00
2023-02-14T14:57:53.443Z,24.05
2023-02-14T15:00:28.557Z,24.00
2023-02-14T15:03:13.311Z,24.70
2023-02-14T15:05:42.672Z,23.52
2023-02-14T15:08:25.436Z,23.73
2023-02-14T15:11:13.009Z,23.05
2023-02-14T15:13:49.709Z,23.98
2023-02-14T15:16:20.747Z,24.60
2023-02-14T15:18:48.853Z,24.50
2023-02-14T15:21:16.776Z,24.10
2023-02-14T15:23:46.579Z,24.17
2023-02-14T15:26:22.220Z,24.45
2023-02-14T15:28:58.258Z,24.75
2023-02-14T15:31:29.485Z,23.65
2023-02-14T15:33:59.933Z,23.73
2023-02-14T15:36:27.203Z,24.63
2023-02-14T15:38:56.758Z,26.40
2023-02-14T15:41:24.875Z,24.30
2023-02-14T15:43:53.925Z,25.88
2023-02-14T15:46:31.110Z,23.50
2023-02-14T15:49:01.229Z,24.00
2023-02-14T15:51:35.822Z,24.45
2023-02-14T15:54:07.177Z,23.42
2023-02-14T15:56:37.176Z,25.55
2023-02-14T15:59:17.152Z,24.73
2023-02-14T16:01:54.920Z,26.77
2023-02-14T16:04:27.521Z,23.70
2023-02-14T16:07:06.732Z,25.97
2023-02-14T16:09:34.630Z,23.70
2023-02-14T16:12:31.990Z,26.15
2023-02-14T16:15:10.714Z,24.27
2023-02-14T16:17:37.332Z,25.83
2023-02-14T16:20:43.709Z,23.90
2023-02-14T16:23:21.074Z,26.08
2023-02-14T16:25:48.656Z,27.63
2023-02-14T16:28:15.830Z,26.52
2023-02-14T16:30:44.406Z,27.05
2023-02-14T16:33:17.722Z,25.90
2023-02-14T16:35:45.857Z,25.95
2023-02-14T16:38:16.205Z,26.63
2023-02-14T16:40:46.177Z,25.08
2023-02-14T16:43:14.921Z,27.45
2023-02-14T16:45:42.502Z,26.75
2023-02-14T16:48:09.575Z,26.23
2023-02-14T16:50:38.309Z,27.05
2023-02-14T16:53:08.913Z,26.73
2023-02-14T16:55:35.573Z,27.42
2023-02-14T16:58:02.993Z,26.63
2023-02-14T17:00:29.563Z,27.95
2023-02-14T17:03:06.240Z,27.45
2023-02-14T17:05:35.515Z,28.00
2023-02-14T17:08:04.488Z,27.70
2023-02-14T17:10:31.904Z,27.77
2023-02-14T17:12:59.489Z,27.45
2023-02-14T17:15:27.419Z,25.98
2023-02-14T17:18:05.246Z,27.02
2023-02-14T17:20:31.723Z,27.73
2023-02-14T17:22:58.374Z,27.25
2023-02-14T17:25:25.469Z,28.80
2023-02-14T17:27:52.194Z,26.65
2023-02-14T17:30:18.857Z,27.50
2023-02-14T17:32:45.593Z,27.27
2023-02-14T17:35:14.114Z,27.80
2023-02-14T17:37:40.652Z,26.90
2023-02-14T17:40:07.852Z,27.73
2023-02-14T17:42:35.448Z,28.05
2023-02-14T17:45:02.465Z,27.38
2023-02-14T17:47:29.632Z,27.23
2023-02-14T17:49:57.166Z,26.73
2023-02-14T17:52:24.373Z,27.20
2023-02-14T17:54:51.088Z,27.83
2023-02-14T17:57:18.140Z,27.55
2023-02-14T17:59:45.470Z,27.77
2023-02-14T18:02:12.353Z,27.23
2023-02-14T18:04:39.130Z,26.67
2023-02-14T18:07:05.901Z,27.30
2023-02-14T18:09:32.666Z,27.75
2023-02-14T18:11:59.194Z,26.10
2023-02-14T18:14:25.912Z,26.40
2023-02-14T18:16:52.631Z,27.25
2023-02-14T18:19:19.212Z,27.20
2023-02-14T18:21:46.214Z,27.83
2023-02-14T18:24:13.257Z,27.83
2023-02-14T18:26:41.101Z,28.08
2023-02-14T18:29:08.606Z,25.92
2023-02-14T18:31:38.000Z,28.13
2023-02-14T18:34:05.187Z,27.65
2023-02-14T18:36:32.372Z,25.95
2023-02-14T18:38:59.283Z,29.38
2023-02-14T18:41:26.999Z,27.60
2023-02-14T18:43:53.856Z,26.95
2023-02-14T18:46:27.276Z,30.70
2023-02-14T18:51:27.473Z,27.15
2023-02-14T18:53:56.446Z,27.25
2023-02-14T18:56:26.502Z,27.90
2023-02-14T18:58:56.799Z,29.20
2023-02-14T19:01:30.512Z,27.70
2023-02-14T19:03:59.677Z,25.50
2023-02-14T19:06:29.377Z,25.52
2023-02-14T19:08:56.496Z,25.27
2023-02-14T19:11:25.662Z,26.13
2023-02-14T19:13:57.526Z,26.60
2023-02-14T19:16:27.161Z,24.63
2023-02-14T19:18:54.117Z,27.65
2023-02-14T19:21:23.528Z,24.98
2023-02-14T19:23:51.911Z,25.92
2023-02-14T19:26:21.083Z,25.77
2023-02-14T19:28:50.363Z,25.98
2023-02-14T19:31:17.399Z,26.23
2023-02-14T19:33:45.742Z,25.30
2023-02-14T19:36:14.485Z,25.35
2023-02-14T19:38:42.821Z,26.02
2023-02-14T19:41:20.628Z,25.63
2023-02-14T19:43:47.906Z,27.45
2023-02-14T19:46:16.284Z,26.10
2023-02-14T19:48:44.634Z,26.23
2023-02-14T19:51:21.180Z,27.08
2023-02-14T19:53:48.291Z,25.52
2023-02-14T19:56:19.928Z,25.83
2023-02-14T19:58:46.958Z,26.08
2023-02-14T20:01:23.281Z,25.08
2023-02-14T20:03:49.941Z,27.42
2023-02-14T20:06:16.526Z,26.48
2023-02-14T20:08:43.116Z,25.63
2023-02-14T20:11:23.032Z,24.85
2023-02-14T20:13:49.488Z,24.48
2023-02-14T20:16:15.974Z,26.25
2023-02-14T20:18:42.448Z,24.70
2023-02-14T20:21:16.674Z,25.10
2023-02-14T20:23:43.315Z,26.48
2023-02-14T20:26:14.672Z,24.67
2023-02-14T20:28:41.530Z,26.65
2023-02-14T20:31:13.067Z,25.10
2023-02-14T20:33:40.152Z,24.80
2023-02-14T20:36:09.655Z,23.85
2023-02-14T20:38:36.128Z,26.42
2023-02-14T20:41:11.230Z,27.25
2023-02-14T20:43:38.799Z,27.48
2023-02-14T20:46:06.995Z,26.88
2023-02-14T20:48:34.504Z,26.75
2023-02-14T20:51:14.357Z,26.33
2023-02-14T20:53:41.903Z,25.48
2023-02-14T20:56:08.756Z,26.70
2023-02-14T20:58:36.726Z,24.80
2023-02-14T21:01:13.178Z,26.00
2023-02-14T21:03:41.478Z,25.73
2023-02-14T21:06:11.535Z,26.30
2023-02-14T21:08:38.798Z,27.00
2023-02-14T21:11:06.834Z,25.92
2023-02-14T21:13:33.980Z,27.42
2023-02-14T21:16:17.217Z,27.25
2023-02-14T21:18:48.504Z,26.98
2023-02-14T21:21:20.291Z,26.52
2023-02-14T21:23:49.338Z,25.58
2023-02-14T21:26:16.264Z,27.55
2023-02-14T21:28:42.791Z,26.45
2023-02-14T21:31:12.389Z,26.52
2023-02-14T21:33:39.351Z,25.45
2023-02-14T21:36:06.817Z,25.02
2023-02-14T21:38:33.899Z,23.85
2023-02-14T21:41:05.106Z,24.10
2023-02-14T21:43:36.674Z,24.67
2023-02-14T21:46:08.457Z,24.83
2023-02-14T21:48:53.646Z,25.75
2023-02-14T21:51:20.996Z,23.48
2023-02-14T21:53:48.222Z,26.00
2023-02-14T21:56:18.044Z,24.23
2023-02-14T21:58:44.702Z,24.17
2023-02-14T22:01:16.599Z,25.73
2023-02-14T22:03:43.340Z,24.42
2023-02-14T22:06:10.450Z,24.23
2023-02-14T22:08:37.076Z,24.00
2023-02-14T22:11:08.757Z,23.80
2023-02-14T22:13:36.144Z,22.23
2023-02-14T22:16:07.117Z,21.63
2023-02-14T22:18:33.939Z,23.92
2023-02-14T22:21:01.994Z,24.45
2023-02-14T22:23:35.770Z,24.02
2023-02-14T22:28:56.770Z,22.58
2023-02-14T22:31:24.925Z,22.40
2023-02-14T22:33:51.825Z,22.95
2023-02-14T22:36:18.335Z,23.08
2023-02-14T22:38:44.854Z,21.45
2023-02-14T22:41:14.238Z,22.30
2023-02-14T22:43:41.741Z,24.85
2023-02-14T22:46:19.360Z,21.70
2023-02-14T22:48:47.131Z,23.48
2023-02-14T22:51:21.904Z,22.67
2023-02-14T22:53:50.171Z,22.00
2023-02-14T22:56:22.693Z,21.55
2023-02-14T22:58:53.395Z,18.33
2023-02-14T23:01:21.518Z,22.85
2023-02-14T23:03:52.025Z,22.17
2023-02-14T23:06:18.693Z,20.88
2023-02-14T23:08:47.218Z,20.90
2023-02-14T23:11:16.965Z,21.13
2023-02-14T23:14:02.074Z,20.95
2023-02-14T23:16:47.673Z,19.70
2023-02-14T23:19:35.499Z,20.40
2023-02-14T23:22:11.064Z,21.63
2023-02-14T23:24:37.958Z,20.92
2023-02-14T23:27:04.966Z,21.70
2023-02-14T23:29:31.771Z,21.50
2023-02-14T23:31:58.453Z,21.52
2023-02-14T23:34:27.202Z,20.27
2023-02-14T23:36:53.671Z,22.30
2023-02-14T23:39:20.491Z,22.50
2023-02-14T23:41:49.900Z,22.17
2023-02-14T23:44:17.386Z,20.98
2023-02-14T23:46:44.139Z,22.30
2023-02-14T23:49:11.293Z,20.05
2023-02-14T23:51:37.844Z,20.85
2023-02-14T23:54:04.576Z,21.90
2023-02-14T23:56:31.280Z,21.55
2023-02-14T23:58:57.832Z,20.98
